sensor_id;sensor_type;location;lat;lon;timestamp;temperature;humidity
4433;DHT22;2229;48.708;9.706;2022-10-31T00:01:36;12.20;99.90
4433;DHT22;2229;48.708;9.706;2022-10-31T00:04:14;12.20;99.90
4433;DHT22;2229;48.708;9.706;2022-10-31T00:06:41;12.20;99.90
4433;DHT22;2229;48.708;9.706;2022-10-31T00:09:09;12.20;99.90
4433;DHT22;2229;48.708;9.706;2022-10-31T00:11:37;12.20;99.90
4433;DHT22;2229;48.708;9.706;2022-10-31T00:14:04;12.20;99.90
4433;DHT22;2229;48.708;9.706;2022-10-31T00:16:32;12.10;99.90
4433;DHT22;2229;48.708;9.706;2022-10-31T00:19:01;12.10;99.90
4433;DHT22;2229;48.708;9.706;2022-10-31T00:21:30;12.10;99.90
4433;DHT22;2229;48.708;9.706;2022-10-31T00:24:05;12.10;99.90
4433;DHT22;2229;48.708;9.706;2022-10-31T00:26:32;12.10;99.90
4433;DHT22;2229;48.708;9.706;2022-10-31T00:29:00;12.10;99.90
4433;DHT22;2229;48.708;9.706;2022-10-31T00:31:27;12.00;99.90
4433;DHT22;2229;48.708;9.706;2022-10-31T00:33:54;12.00;99.90
4433;DHT22;2229;48.708;9.706;2022-10-31T00:36:22;12.00;99.90
4433;DHT22;2229;48.708;9.706;2022-10-31T00:38:50;11.90;99.90
4433;DHT22;2229;48.708;9.706;2022-10-31T00:41:20;11.90;99.90
4433;DHT22;2229;48.708;9.706;2022-10-31T00:43:47;11.80;99.90
4433;DHT22;2229;48.708;9.706;2022-10-31T00:46:14;11.80;99.90
4433;DHT22;2229;48.708;9.706;2022-10-31T00:48:42;11.80;99.90
4433;DHT22;2229;48.708;9.706;2022-10-31T00:51:09;11.80;99.90
4433;DHT22;2229;48.708;9.706;2022-10-31T00:53:36;11.70;99.90
4433;DHT22;2229;48.708;9.706;2022-10-31T00:56:06;11.80;99.90
4433;DHT22;2229;48.708;9.706;2022-10-31T00:58:34;11.70;99.90
4433;DHT22;2229;48.708;9.706;2022-10-31T01:01:01;11.70;99.90
4433;DHT22;2229;48.708;9.706;2022-10-31T01:03:30;11.70;99.90
4433;DHT22;2229;48.708;9.706;2022-10-31T01:05:59;11.70;99.90
4433;DHT22;2229;48.708;9.706;2022-10-31T01:08:27;11.70;99.90
4433;DHT22;2229;48.708;9.706;2022-10-31T01:10:59;11.60;99.90
4433;DHT22;2229;48.708;9.706;2022-10-31T01:13:28;11.60;99.90
4433;DHT22;2229;48.708;9.706;2022-10-31T01:15:56;11.60;99.90
4433;DHT22;2229;48.708;9.706;2022-10-31T01:18:24;11.60;99.90
4433;DHT22;2229;48.708;9.706;2022-10-31T01:21:00;11.50;99.90
4433;DHT22;2229;48.708;9.706;2022-10-31T01:23:28;11.60;99.90
4433;DHT22;2229;48.708;9.706;2022-10-31T01:26:00;11.50;99.90
4433;DHT22;2229;48.708;9.706;2022-10-31T01:28:29;11.50;99.90
4433;DHT22;2229;48.708;9.706;2022-10-31T01:31:00;11.50;99.90
4433;DHT22;2229;48.708;9.706;2022-10-31T01:33:29;11.60;99.90
4433;DHT22;2229;48.708;9.706;2022-10-31T01:35:57;11.60;99.90
4433;DHT22;2229;48.708;9.706;2022-10-31T01:38:24;11.60;99.90
4433;DHT22;2229;48.708;9.706;2022-10-31T01:40:52;11.60;99.90
4433;DHT22;2229;48.708;9.706;2022-10-31T01:43:19;11.50;99.90
4433;DHT22;2229;48.708;9.706;2022-10-31T01:45:52;11.50;99.90
4433;DHT22;2229;48.708;9.706;2022-10-31T01:48:29;11.50;99.90
4433;DHT22;2229;48.708;9.706;2022-10-31T01:51:17;11.40;99.90
4433;DHT22;2229;48.708;9.706;2022-10-31T01:53:45;11.40;99.90
4433;DHT22;2229;48.708;9.706;2022-10-31T01:56:15;11.40;99.90
4433;DHT22;2229;48.708;9.706;2022-10-31T01:58:45;11.30;99.90
4433;DHT22;2229;48.708;9.706;2022-10-31T02:01:17;11.20;99.90
4433;DHT22;2229;48.708;9.706;2022-10-31T02:03:46;11.20;99.90
4433;DHT22;2229;48.708;9.706;2022-10-31T02:06:21;11.20;99.90
4433;DHT22;2229;48.708;9.706;2022-10-31T02:08:53;11.20;99.90
4433;DHT22;2229;48.708;9.706;2022-10-31T02:11:21;11.20;99.90
4433;DHT22;2229;48.708;9.706;2022-10-31T02:13:49;11.20;99.90
4433;DHT22;2229;48.708;9.706;2022-10-31T02:16:18;11.20;99.90
4433;DHT22;2229;48.708;9.706;2022-10-31T02:18:45;11.20;99.90
4433;DHT22;2229;48.708;9.706;2022-10-31T02:21:16;11.20;99.90
4433;DHT22;2229;48.708;9.706;2022-10-31T02:24:15;11.20;99.90
4433;DHT22;2229;48.708;9.706;2022-10-31T02:27:07;11.20;99.90
4433;DHT22;2229;48.708;9.706;2022-10-31T02:29:55;11.20;99.90
4433;DHT22;2229;48.708;9.706;2022-10-31T02:32:32;11.20;99.90
4433;DHT22;2229;48.708;9.706;2022-10-31T02:35:09;11.20;99.90
4433;DHT22;2229;48.708;9.706;2022-10-31T02:37:40;11.20;99.90
4433;DHT22;2229;48.708;9.706;2022-10-31T02:40:15;11.20;99.90
4433;DHT22;2229;48.708;9.706;2022-10-31T02:43:06;11.20;99.90
4433;DHT22;2229;48.708;9.706;2022-10-31T02:45:43;11.30;99.90
4433;DHT22;2229;48.708;9.706;2022-10-31T02:48:18;11.30;99.90
4433;DHT22;2229;48.708;9.706;2022-10-31T02:50:49;11.30;99.90
4433;DHT22;2229;48.708;9.706;2022-10-31T02:53:18;11.30;99.90
4433;DHT22;2229;48.708;9.706;2022-10-31T02:55:58;11.20;99.90
4433;DHT22;2229;48.708;9.706;2022-10-31T02:58:30;11.20;99.90
4433;DHT22;2229;48.708;9.706;2022-10-31T03:01:14;11.20;99.90
4433;DHT22;2229;48.708;9.706;2022-10-31T03:03:57;11.20;99.90
4433;DHT22;2229;48.708;9.706;2022-10-31T03:06:33;11.20;99.90
4433;DHT22;2229;48.708;9.706;2022-10-31T03:09:08;11.20;99.90
4433;DHT22;2229;48.708;9.706;2022-10-31T03:11:43;11.20;99.90
4433;DHT22;2229;48.708;9.706;2022-10-31T03:14:16;11.20;99.90
4433;DHT22;2229;48.708;9.706;2022-10-31T03:16:49;11.20;99.90
4433;DHT22;2229;48.708;9.706;2022-10-31T03:19:21;11.20;99.90
4433;DHT22;2229;48.708;9.706;2022-10-31T03:21:53;11.20;99.90
4433;DHT22;2229;48.708;9.706;2022-10-31T03:24:24;11.20;99.90
4433;DHT22;2229;48.708;9.706;2022-10-31T03:26:58;11.20;99.90
4433;DHT22;2229;48.708;9.706;2022-10-31T03:29:32;11.20;99.90
4433;DHT22;2229;48.708;9.706;2022-10-31T03:32:04;11.20;99.90
4433;DHT22;2229;48.708;9.706;2022-10-31T03:34:36;11.10;99.90
4433;DHT22;2229;48.708;9.706;2022-10-31T03:37:07;11.10;99.90
4433;DHT22;2229;48.708;9.706;2022-10-31T03:39:36;11.00;99.90
4433;DHT22;2229;48.708;9.706;2022-10-31T03:42:11;11.00;99.90
4433;DHT22;2229;48.708;9.706;2022-10-31T03:44:41;10.90;99.90
4433;DHT22;2229;48.708;9.706;2022-10-31T03:47:09;10.90;99.90
4433;DHT22;2229;48.708;9.706;2022-10-31T03:49:38;10.90;99.90
4433;DHT22;2229;48.708;9.706;2022-10-31T03:52:11;10.90;99.90
4433;DHT22;2229;48.708;9.706;2022-10-31T03:54:43;10.80;99.90
4433;DHT22;2229;48.708;9.706;2022-10-31T03:57:18;10.80;99.90
4433;DHT22;2229;48.708;9.706;2022-10-31T03:59:54;10.80;99.90
4433;DHT22;2229;48.708;9.706;2022-10-31T04:02:27;10.80;99.90
4433;DHT22;2229;48.708;9.706;2022-10-31T04:04:58;10.80;99.90
4433;DHT22;2229;48.708;9.706;2022-10-31T04:07:29;10.70;99.90
4433;DHT22;2229;48.708;9.706;2022-10-31T04:09:59;10.80;99.90
4433;DHT22;2229;48.708;9.706;2022-10-31T04:12:36;10.70;99.90
4433;DHT22;2229;48.708;9.706;2022-10-31T04:15:17;10.70;99.90
4433;DHT22;2229;48.708;9.706;2022-10-31T04:17:47;10.70;99.90
4433;DHT22;2229;48.708;9.706;2022-10-31T04:20:28;10.70;99.90
4433;DHT22;2229;48.708;9.706;2022-10-31T04:22:55;10.70;99.90
4433;DHT22;2229;48.708;9.706;2022-10-31T04:25:23;10.60;99.90
4433;DHT22;2229;48.708;9.706;2022-10-31T04:27:52;10.60;99.90
4433;DHT22;2229;48.708;9.706;2022-10-31T04:30:19;10.60;99.90
4433;DHT22;2229;48.708;9.706;2022-10-31T04:32:47;10.60;99.90
4433;DHT22;2229;48.708;9.706;2022-10-31T04:35:14;10.50;99.90
4433;DHT22;2229;48.708;9.706;2022-10-31T04:37:43;10.50;99.90
4433;DHT22;2229;48.708;9.706;2022-10-31T04:40:11;10.40;99.90
4433;DHT22;2229;48.708;9.706;2022-10-31T04:42:56;10.40;99.90
4433;DHT22;2229;48.708;9.706;2022-10-31T04:45:23;10.40;99.90
4433;DHT22;2229;48.708;9.706;2022-10-31T04:47:52;10.30;99.90
4433;DHT22;2229;48.708;9.706;2022-10-31T04:50:19;10.30;99.90
4433;DHT22;2229;48.708;9.706;2022-10-31T04:52:48;10.40;99.90
4433;DHT22;2229;48.708;9.706;2022-10-31T04:55:20;10.30;99.90
4433;DHT22;2229;48.708;9.706;2022-10-31T04:58:26;10.40;99.90
4433;DHT22;2229;48.708;9.706;2022-10-31T05:00:54;10.40;99.90
4433;DHT22;2229;48.708;9.706;2022-10-31T05:03:21;10.40;99.90
4433;DHT22;2229;48.708;9.706;2022-10-31T05:06:21;10.40;99.90
4433;DHT22;2229;48.708;9.706;2022-10-31T05:08:50;10.40;99.90
4433;DHT22;2229;48.708;9.706;2022-10-31T05:11:19;10.40;99.90
4433;DHT22;2229;48.708;9.706;2022-10-31T05:13:46;10.40;99.90
4433;DHT22;2229;48.708;9.706;2022-10-31T05:16:14;10.50;99.90
4433;DHT22;2229;48.708;9.706;2022-10-31T05:19:00;10.50;99.90
4433;DHT22;2229;48.708;9.706;2022-10-31T05:21:53;10.60;99.90
4433;DHT22;2229;48.708;9.706;2022-10-31T05:24:21;10.60;99.90
4433;DHT22;2229;48.708;9.706;2022-10-31T05:26:49;10.60;99.90
4433;DHT22;2229;48.708;9.706;2022-10-31T05:29:17;10.60;99.90
4433;DHT22;2229;48.708;9.706;2022-10-31T05:31:44;10.60;99.90
4433;DHT22;2229;48.708;9.706;2022-10-31T05:34:27;10.20;99.90
4433;DHT22;2229;48.708;9.706;2022-10-31T05:37:20;10.40;99.90
4433;DHT22;2229;48.708;9.706;2022-10-31T05:39:52;10.40;99.90
4433;DHT22;2229;48.708;9.706;2022-10-31T05:42:21;10.30;99.90
4433;DHT22;2229;48.708;9.706;2022-10-31T05:44:48;10.30;99.90
4433;DHT22;2229;48.708;9.706;2022-10-31T05:47:41;10.30;99.90
4433;DHT22;2229;48.708;9.706;2022-10-31T05:50:28;10.20;99.90
4433;DHT22;2229;48.708;9.706;2022-10-31T05:53:38;10.20;99.90
4433;DHT22;2229;48.708;9.706;2022-10-31T05:56:08;10.20;99.90
4433;DHT22;2229;48.708;9.706;2022-10-31T05:58:35;10.20;99.90
4433;DHT22;2229;48.708;9.706;2022-10-31T06:01:05;10.30;99.90
4433;DHT22;2229;48.708;9.706;2022-10-31T06:03:33;10.30;99.90
4433;DHT22;2229;48.708;9.706;2022-10-31T06:06:02;10.30;99.90
4433;DHT22;2229;48.708;9.706;2022-10-31T06:08:35;10.30;99.90
4433;DHT22;2229;48.708;9.706;2022-10-31T06:11:08;10.20;99.90
4433;DHT22;2229;48.708;9.706;2022-10-31T06:13:59;10.20;99.90
4433;DHT22;2229;48.708;9.706;2022-10-31T06:16:41;10.10;99.90
4433;DHT22;2229;48.708;9.706;2022-10-31T06:19:27;10.10;99.90
4433;DHT22;2229;48.708;9.706;2022-10-31T06:21:54;10.10;99.90
4433;DHT22;2229;48.708;9.706;2022-10-31T06:24:22;10.00;99.90
4433;DHT22;2229;48.708;9.706;2022-10-31T06:27:11;10.00;99.90
4433;DHT22;2229;48.708;9.706;2022-10-31T06:29:38;10.00;99.90
4433;DHT22;2229;48.708;9.706;2022-10-31T06:32:10;10.10;99.90
4433;DHT22;2229;48.708;9.706;2022-10-31T06:34:42;10.10;99.90
4433;DHT22;2229;48.708;9.706;2022-10-31T06:37:13;10.10;99.90
4433;DHT22;2229;48.708;9.706;2022-10-31T06:39:44;10.20;99.90
4433;DHT22;2229;48.708;9.706;2022-10-31T06:42:16;10.30;99.90
4433;DHT22;2229;48.708;9.706;2022-10-31T06:44:44;10.30;99.90
4433;DHT22;2229;48.708;9.706;2022-10-31T06:47:29;10.30;99.90
4433;DHT22;2229;48.708;9.706;2022-10-31T06:50:07;10.40;99.90
4433;DHT22;2229;48.708;9.706;2022-10-31T06:52:34;10.50;99.90
4433;DHT22;2229;48.708;9.706;2022-10-31T06:55:04;10.50;99.90
4433;DHT22;2229;48.708;9.706;2022-10-31T06:57:34;10.60;99.90
4433;DHT22;2229;48.708;9.706;2022-10-31T07:00:02;10.70;99.90
4433;DHT22;2229;48.708;9.706;2022-10-31T07:02:56;10.80;99.90
4433;DHT22;2229;48.708;9.706;2022-10-31T07:05:23;10.90;99.90
4433;DHT22;2229;48.708;9.706;2022-10-31T07:07:52;11.10;99.90
4433;DHT22;2229;48.708;9.706;2022-10-31T07:10:21;11.20;99.90
4433;DHT22;2229;48.708;9.706;2022-10-31T07:13:01;11.30;99.90
4433;DHT22;2229;48.708;9.706;2022-10-31T07:15:34;11.50;99.90
4433;DHT22;2229;48.708;9.706;2022-10-31T07:18:03;11.70;99.90
4433;DHT22;2229;48.708;9.706;2022-10-31T07:20:31;11.80;99.90
4433;DHT22;2229;48.708;9.706;2022-10-31T07:22:58;11.90;99.90
4433;DHT22;2229;48.708;9.706;2022-10-31T07:25:27;12.10;99.90
4433;DHT22;2229;48.708;9.706;2022-10-31T07:28:12;12.20;99.90
4433;DHT22;2229;48.708;9.706;2022-10-31T07:30:40;12.40;99.90
4433;DHT22;2229;48.708;9.706;2022-10-31T07:33:08;12.60;99.90
4433;DHT22;2229;48.708;9.706;2022-10-31T07:35:57;12.80;99.90
4433;DHT22;2229;48.708;9.706;2022-10-31T07:38:29;13.10;99.90
4433;DHT22;2229;48.708;9.706;2022-10-31T07:40:59;13.40;99.90
4433;DHT22;2229;48.708;9.706;2022-10-31T07:43:30;13.80;99.90
4433;DHT22;2229;48.708;9.706;2022-10-31T07:46:15;14.30;99.90
4433;DHT22;2229;48.708;9.706;2022-10-31T07:49:01;14.70;99.90
4433;DHT22;2229;48.708;9.706;2022-10-31T07:52:07;15.30;99.90
4433;DHT22;2229;48.708;9.706;2022-10-31T07:54:34;16.10;99.90
4433;DHT22;2229;48.708;9.706;2022-10-31T07:57:01;16.60;99.90
4433;DHT22;2229;48.708;9.706;2022-10-31T07:59:50;17.10;99.90
4433;DHT22;2229;48.708;9.706;2022-10-31T08:02:18;17.50;99.50
4433;DHT22;2229;48.708;9.706;2022-10-31T08:04:48;17.80;98.40
4433;DHT22;2229;48.708;9.706;2022-10-31T08:07:36;18.00;97.80
4433;DHT22;2229;48.708;9.706;2022-10-31T08:10:06;18.20;96.50
4433;DHT22;2229;48.708;9.706;2022-10-31T08:12:39;18.30;95.90
4433;DHT22;2229;48.708;9.706;2022-10-31T08:15:09;18.50;95.40
4433;DHT22;2229;48.708;9.706;2022-10-31T08:17:37;18.70;94.70
4433;DHT22;2229;48.708;9.706;2022-10-31T08:20:05;18.70;93.80
4433;DHT22;2229;48.708;9.706;2022-10-31T08:22:39;18.70;93.60
4433;DHT22;2229;48.708;9.706;2022-10-31T08:25:07;18.60;93.20
4433;DHT22;2229;48.708;9.706;2022-10-31T08:27:35;18.50;93.10
4433;DHT22;2229;48.708;9.706;2022-10-31T08:30:06;18.30;93.00
4433;DHT22;2229;48.708;9.706;2022-10-31T08:32:39;18.40;93.10
4433;DHT22;2229;48.708;9.706;2022-10-31T08:35:30;18.40;92.80
4433;DHT22;2229;48.708;9.706;2022-10-31T08:38:17;18.40;92.90
4433;DHT22;2229;48.708;9.706;2022-10-31T08:40:48;18.60;92.60
4433;DHT22;2229;48.708;9.706;2022-10-31T08:43:16;18.70;92.50
4433;DHT22;2229;48.708;9.706;2022-10-31T08:45:49;18.80;91.90
4433;DHT22;2229;48.708;9.706;2022-10-31T08:48:24;19.00;91.50
4433;DHT22;2229;48.708;9.706;2022-10-31T08:50:56;19.10;91.30
4433;DHT22;2229;48.708;9.706;2022-10-31T08:53:24;19.30;90.90
4433;DHT22;2229;48.708;9.706;2022-10-31T08:56:05;19.40;90.40
4433;DHT22;2229;48.708;9.706;2022-10-31T08:58:35;19.50;90.10
4433;DHT22;2229;48.708;9.706;2022-10-31T09:01:04;19.60;90.00
4433;DHT22;2229;48.708;9.706;2022-10-31T09:03:33;19.70;90.00
4433;DHT22;2229;48.708;9.706;2022-10-31T09:06:03;19.70;88.90
4433;DHT22;2229;48.708;9.706;2022-10-31T09:08:34;19.80;88.50
4433;DHT22;2229;48.708;9.706;2022-10-31T09:11:02;19.80;87.90
4433;DHT22;2229;48.708;9.706;2022-10-31T09:13:48;20.00;87.80
4433;DHT22;2229;48.708;9.706;2022-10-31T09:16:35;20.10;86.80
4433;DHT22;2229;48.708;9.706;2022-10-31T09:19:06;20.20;86.30
4433;DHT22;2229;48.708;9.706;2022-10-31T09:21:33;20.30;86.20
4433;DHT22;2229;48.708;9.706;2022-10-31T09:24:01;20.30;85.80
4433;DHT22;2229;48.708;9.706;2022-10-31T09:26:28;20.30;85.70
4433;DHT22;2229;48.708;9.706;2022-10-31T09:29:16;20.40;85.50
4433;DHT22;2229;48.708;9.706;2022-10-31T09:31:45;20.40;85.10
4433;DHT22;2229;48.708;9.706;2022-10-31T09:34:36;20.50;84.80
4433;DHT22;2229;48.708;9.706;2022-10-31T09:37:12;20.60;84.70
4433;DHT22;2229;48.708;9.706;2022-10-31T09:39:40;20.70;83.80
4433;DHT22;2229;48.708;9.706;2022-10-31T09:42:41;20.80;83.40
4433;DHT22;2229;48.708;9.706;2022-10-31T09:45:22;20.70;82.70
4433;DHT22;2229;48.708;9.706;2022-10-31T09:48:04;21.00;83.10
4433;DHT22;2229;48.708;9.706;2022-10-31T09:50:39;21.40;81.90
4433;DHT22;2229;48.708;9.706;2022-10-31T09:53:35;21.70;81.10
4433;DHT22;2229;48.708;9.706;2022-10-31T09:56:07;22.00;79.80
4433;DHT22;2229;48.708;9.706;2022-10-31T09:58:40;22.40;79.00
4433;DHT22;2229;48.708;9.706;2022-10-31T10:01:35;22.60;77.90
4433;DHT22;2229;48.708;9.706;2022-10-31T10:04:19;22.90;76.30
4433;DHT22;2229;48.708;9.706;2022-10-31T10:07:01;23.10;74.50
4433;DHT22;2229;48.708;9.706;2022-10-31T10:09:45;23.20;74.30
4433;DHT22;2229;48.708;9.706;2022-10-31T10:12:59;23.10;73.80
4433;DHT22;2229;48.708;9.706;2022-10-31T10:15:41;23.10;73.70
4433;DHT22;2229;48.708;9.706;2022-10-31T10:18:22;23.00;74.00
4433;DHT22;2229;48.708;9.706;2022-10-31T10:21:09;22.90;74.20
4433;DHT22;2229;48.708;9.706;2022-10-31T10:23:54;22.80;74.20
4433;DHT22;2229;48.708;9.706;2022-10-31T10:26:30;22.70;74.60
4433;DHT22;2229;48.708;9.706;2022-10-31T10:29:06;22.60;75.50
4433;DHT22;2229;48.708;9.706;2022-10-31T10:31:38;22.30;75.80
4433;DHT22;2229;48.708;9.706;2022-10-31T10:34:11;22.20;76.30
4433;DHT22;2229;48.708;9.706;2022-10-31T10:36:44;22.00;76.80
4433;DHT22;2229;48.708;9.706;2022-10-31T10:39:20;21.90;77.00
4433;DHT22;2229;48.708;9.706;2022-10-31T10:41:51;21.80;76.70
4433;DHT22;2229;48.708;9.706;2022-10-31T10:44:39;21.70;76.20
4433;DHT22;2229;48.708;9.706;2022-10-31T10:47:26;21.60;77.10
4433;DHT22;2229;48.708;9.706;2022-10-31T10:50:10;21.50;76.50
4433;DHT22;2229;48.708;9.706;2022-10-31T10:52:43;21.40;76.40
4433;DHT22;2229;48.708;9.706;2022-10-31T10:55:22;21.40;76.10
4433;DHT22;2229;48.708;9.706;2022-10-31T10:57:56;21.30;76.20
4433;DHT22;2229;48.708;9.706;2022-10-31T11:00:26;21.10;76.80
4433;DHT22;2229;48.708;9.706;2022-10-31T11:02:54;21.10;76.80
4433;DHT22;2229;48.708;9.706;2022-10-31T11:05:30;21.10;76.80
4433;DHT22;2229;48.708;9.706;2022-10-31T11:08:00;21.00;77.00
4433;DHT22;2229;48.708;9.706;2022-10-31T11:10:29;21.00;77.40
4433;DHT22;2229;48.708;9.706;2022-10-31T11:13:17;20.90;77.30
4433;DHT22;2229;48.708;9.706;2022-10-31T11:15:53;20.80;77.20
4433;DHT22;2229;48.708;9.706;2022-10-31T11:18:24;20.80;77.70
4433;DHT22;2229;48.708;9.706;2022-10-31T11:20:54;20.80;78.00
4433;DHT22;2229;48.708;9.706;2022-10-31T11:23:23;20.70;77.90
4433;DHT22;2229;48.708;9.706;2022-10-31T11:26:20;20.60;78.30
4433;DHT22;2229;48.708;9.706;2022-10-31T11:28:56;20.50;79.10
4433;DHT22;2229;48.708;9.706;2022-10-31T11:31:37;20.50;79.80
4433;DHT22;2229;48.708;9.706;2022-10-31T11:34:06;20.40;80.20
4433;DHT22;2229;48.708;9.706;2022-10-31T11:36:42;20.40;80.40
4433;DHT22;2229;48.708;9.706;2022-10-31T11:39:16;20.40;80.40
4433;DHT22;2229;48.708;9.706;2022-10-31T11:41:46;20.40;80.50
4433;DHT22;2229;48.708;9.706;2022-10-31T11:44:17;20.50;80.80
4433;DHT22;2229;48.708;9.706;2022-10-31T11:46:48;20.60;81.30
4433;DHT22;2229;48.708;9.706;2022-10-31T11:49:19;20.70;81.30
4433;DHT22;2229;48.708;9.706;2022-10-31T11:51:49;20.80;81.00
4433;DHT22;2229;48.708;9.706;2022-10-31T11:54:22;20.80;81.20
4433;DHT22;2229;48.708;9.706;2022-10-31T11:56:55;20.80;80.90
4433;DHT22;2229;48.708;9.706;2022-10-31T11:59:26;20.80;81.10
4433;DHT22;2229;48.708;9.706;2022-10-31T12:01:55;20.80;81.60
4433;DHT22;2229;48.708;9.706;2022-10-31T12:04:29;20.70;81.50
4433;DHT22;2229;48.708;9.706;2022-10-31T12:06:58;20.70;81.80
4433;DHT22;2229;48.708;9.706;2022-10-31T12:09:27;20.70;82.00
4433;DHT22;2229;48.708;9.706;2022-10-31T12:15:42;20.60;82.70
4433;DHT22;2229;48.708;9.706;2022-10-31T12:18:26;20.60;83.10
4433;DHT22;2229;48.708;9.706;2022-10-31T12:21:12;20.50;83.20
4433;DHT22;2229;48.708;9.706;2022-10-31T12:23:52;20.50;83.50
4433;DHT22;2229;48.708;9.706;2022-10-31T12:26:29;20.60;84.00
4433;DHT22;2229;48.708;9.706;2022-10-31T12:29:18;20.60;83.90
4433;DHT22;2229;48.708;9.706;2022-10-31T12:32:04;20.60;83.70
4433;DHT22;2229;48.708;9.706;2022-10-31T12:35:10;20.60;84.10
4433;DHT22;2229;48.708;9.706;2022-10-31T12:37:50;20.70;84.10
4433;DHT22;2229;48.708;9.706;2022-10-31T12:40:36;20.80;84.30
4433;DHT22;2229;48.708;9.706;2022-10-31T12:43:20;20.80;84.40
4433;DHT22;2229;48.708;9.706;2022-10-31T12:45:53;20.80;84.80
4433;DHT22;2229;48.708;9.706;2022-10-31T12:48:46;20.80;84.80
4433;DHT22;2229;48.708;9.706;2022-10-31T12:51:22;20.80;84.90
4433;DHT22;2229;48.708;9.706;2022-10-31T12:54:07;20.80;85.00
4433;DHT22;2229;48.708;9.706;2022-10-31T12:56:45;20.70;85.20
4433;DHT22;2229;48.708;9.706;2022-10-31T12:59:21;20.70;85.50
4433;DHT22;2229;48.708;9.706;2022-10-31T13:01:58;20.60;85.80
4433;DHT22;2229;48.708;9.706;2022-10-31T13:04:35;20.50;86.20
4433;DHT22;2229;48.708;9.706;2022-10-31T13:07:07;20.50;87.80
4433;DHT22;2229;48.708;9.706;2022-10-31T13:09:38;20.40;88.60
4433;DHT22;2229;48.708;9.706;2022-10-31T13:12:09;20.30;89.10
4433;DHT22;2229;48.708;9.706;2022-10-31T13:14:39;20.20;89.90
4433;DHT22;2229;48.708;9.706;2022-10-31T13:17:23;20.10;90.00
4433;DHT22;2229;48.708;9.706;2022-10-31T13:19:56;20.00;90.00
4433;DHT22;2229;48.708;9.706;2022-10-31T13:22:30;19.90;90.40
4433;DHT22;2229;48.708;9.706;2022-10-31T13:25:10;19.80;90.10
4433;DHT22;2229;48.708;9.706;2022-10-31T13:27:45;19.70;90.10
4433;DHT22;2229;48.708;9.706;2022-10-31T13:30:17;19.60;90.20
4433;DHT22;2229;48.708;9.706;2022-10-31T13:32:59;19.50;90.30
4433;DHT22;2229;48.708;9.706;2022-10-31T13:35:35;19.40;90.30
4433;DHT22;2229;48.708;9.706;2022-10-31T13:38:13;19.40;90.50
4433;DHT22;2229;48.708;9.706;2022-10-31T13:40:47;19.30;90.70
4433;DHT22;2229;48.708;9.706;2022-10-31T13:43:23;19.30;90.90
4433;DHT22;2229;48.708;9.706;2022-10-31T13:45:54;19.20;91.00
4433;DHT22;2229;48.708;9.706;2022-10-31T13:48:36;19.20;91.00
4433;DHT22;2229;48.708;9.706;2022-10-31T13:51:09;19.20;91.10
4433;DHT22;2229;48.708;9.706;2022-10-31T13:53:38;19.10;91.20
4433;DHT22;2229;48.708;9.706;2022-10-31T13:56:18;19.20;91.60
4433;DHT22;2229;48.708;9.706;2022-10-31T13:59:04;19.20;91.70
4433;DHT22;2229;48.708;9.706;2022-10-31T14:01:33;19.20;91.90
4433;DHT22;2229;48.708;9.706;2022-10-31T14:04:04;19.20;91.80
4433;DHT22;2229;48.708;9.706;2022-10-31T14:06:42;19.20;91.70
4433;DHT22;2229;48.708;9.706;2022-10-31T14:09:21;19.20;91.60
4433;DHT22;2229;48.708;9.706;2022-10-31T14:11:51;19.30;91.70
4433;DHT22;2229;48.708;9.706;2022-10-31T14:14:20;19.40;92.00
4433;DHT22;2229;48.708;9.706;2022-10-31T14:16:54;19.40;91.60
4433;DHT22;2229;48.708;9.706;2022-10-31T14:19:22;19.60;91.80
4433;DHT22;2229;48.708;9.706;2022-10-31T14:21:51;19.80;91.60
4433;DHT22;2229;48.708;9.706;2022-10-31T14:24:35;20.00;91.50
4433;DHT22;2229;48.708;9.706;2022-10-31T14:29:47;20.20;91.70
4433;DHT22;2229;48.708;9.706;2022-10-31T14:32:20;20.20;91.50
4433;DHT22;2229;48.708;9.706;2022-10-31T14:34:53;20.20;91.40
4433;DHT22;2229;48.708;9.706;2022-10-31T14:37:46;20.20;91.60
4433;DHT22;2229;48.708;9.706;2022-10-31T14:40:26;20.20;91.70
4433;DHT22;2229;48.708;9.706;2022-10-31T14:43:13;20.20;91.60
4433;DHT22;2229;48.708;9.706;2022-10-31T14:45:53;20.10;91.50
4433;DHT22;2229;48.708;9.706;2022-10-31T14:48:43;20.10;91.50
4433;DHT22;2229;48.708;9.706;2022-10-31T14:51:17;20.10;91.40
4433;DHT22;2229;48.708;9.706;2022-10-31T14:53:49;20.10;91.40
4433;DHT22;2229;48.708;9.706;2022-10-31T14:56:20;20.00;91.30
4433;DHT22;2229;48.708;9.706;2022-10-31T14:58:49;20.00;91.30
4433;DHT22;2229;48.708;9.706;2022-10-31T15:01:22;20.00;91.30
4433;DHT22;2229;48.708;9.706;2022-10-31T15:03:50;19.90;91.30
4433;DHT22;2229;48.708;9.706;2022-10-31T15:06:20;19.80;91.30
4433;DHT22;2229;48.708;9.706;2022-10-31T15:08:50;19.80;91.40
4433;DHT22;2229;48.708;9.706;2022-10-31T15:11:20;19.60;91.80
4433;DHT22;2229;48.708;9.706;2022-10-31T15:13:48;19.50;91.50
4433;DHT22;2229;48.708;9.706;2022-10-31T15:16:19;19.30;91.60
4433;DHT22;2229;48.708;9.706;2022-10-31T15:18:53;19.20;91.70
4433;DHT22;2229;48.708;9.706;2022-10-31T15:21:22;19.00;91.80
4433;DHT22;2229;48.708;9.706;2022-10-31T15:23:53;18.80;91.80
4433;DHT22;2229;48.708;9.706;2022-10-31T15:26:46;18.70;91.90
4433;DHT22;2229;48.708;9.706;2022-10-31T15:29:16;19.20;92.20
4433;DHT22;2229;48.708;9.706;2022-10-31T15:31:50;18.40;91.90
4433;DHT22;2229;48.708;9.706;2022-10-31T15:34:21;18.20;91.90
4433;DHT22;2229;48.708;9.706;2022-10-31T15:36:49;18.00;91.90
4433;DHT22;2229;48.708;9.706;2022-10-31T15:39:21;17.90;91.90
4433;DHT22;2229;48.708;9.706;2022-10-31T15:41:51;17.70;91.90
4433;DHT22;2229;48.708;9.706;2022-10-31T15:44:22;17.50;92.00
4433;DHT22;2229;48.708;9.706;2022-10-31T15:46:58;17.40;92.20
4433;DHT22;2229;48.708;9.706;2022-10-31T15:49:35;17.20;92.30
4433;DHT22;2229;48.708;9.706;2022-10-31T15:52:10;17.10;92.50
4433;DHT22;2229;48.708;9.706;2022-10-31T15:54:47;17.00;92.60
4433;DHT22;2229;48.708;9.706;2022-10-31T15:57:15;16.90;92.90
4433;DHT22;2229;48.708;9.706;2022-10-31T15:59:47;16.80;93.00
4433;DHT22;2229;48.708;9.706;2022-10-31T16:02:18;16.70;93.20
4433;DHT22;2229;48.708;9.706;2022-10-31T16:04:52;16.60;93.20
4433;DHT22;2229;48.708;9.706;2022-10-31T16:07:20;16.50;93.30
4433;DHT22;2229;48.708;9.706;2022-10-31T16:09:53;16.40;93.40
4433;DHT22;2229;48.708;9.706;2022-10-31T16:12:22;16.40;93.80
4433;DHT22;2229;48.708;9.706;2022-10-31T16:14:50;16.30;94.10
4433;DHT22;2229;48.708;9.706;2022-10-31T16:17:20;16.20;94.30
4433;DHT22;2229;48.708;9.706;2022-10-31T16:19:52;16.10;94.50
4433;DHT22;2229;48.708;9.706;2022-10-31T16:22:22;16.00;94.60
4433;DHT22;2229;48.708;9.706;2022-10-31T16:24:55;16.00;94.90
4433;DHT22;2229;48.708;9.706;2022-10-31T16:27:25;15.90;95.10
4433;DHT22;2229;48.708;9.706;2022-10-31T16:29:55;15.90;95.40
4433;DHT22;2229;48.708;9.706;2022-10-31T16:32:34;15.80;95.50
4433;DHT22;2229;48.708;9.706;2022-10-31T16:35:17;15.80;95.70
4433;DHT22;2229;48.708;9.706;2022-10-31T16:37:47;15.60;95.80
4433;DHT22;2229;48.708;9.706;2022-10-31T16:40:17;15.60;95.90
4433;DHT22;2229;48.708;9.706;2022-10-31T16:42:44;15.90;96.10
4433;DHT22;2229;48.708;9.706;2022-10-31T16:45:15;15.40;96.10
4433;DHT22;2229;48.708;9.706;2022-10-31T16:47:43;15.40;96.30
4433;DHT22;2229;48.708;9.706;2022-10-31T16:50:16;15.30;96.40
4433;DHT22;2229;48.708;9.706;2022-10-31T16:52:47;15.30;96.50
4433;DHT22;2229;48.708;9.706;2022-10-31T16:55:17;15.20;96.60